Time;durP1;ratioP1;P1;durP2;ratioP2;P2;SDS_P1;SDS_P2;PMS_P1;PMS_P2;Temp;Humidity;BMP_temperature;BMP_pressure;BME280_temperature;BME280_humidity;BME280_pressure;Samples;Min_cycle;Max_cycle;Signal;HPM_P1;HPM_P2
2023/05/17 00:01:37;;;;;;;2.78;1.20;;;;;;;7.00;nan;101063.22;4981333;28;20038;-85
2023/05/17 00:04:02;;;;;;;3.20;1.20;;;;;;;6.95;nan;101058.31;4981717;28;20608;-86
2023/05/17 00:06:28;;;;;;;2.60;1.20;;;;;;;6.93;nan;101064.63;5000353;28;20109;-85
2023/05/17 00:08:53;;;;;;;3.30;1.55;;;;;;;6.89;nan;101071.94;4982991;28;20042;-85
2023/05/17 00:11:18;;;;;;;7.15;2.50;;;;;;;6.84;nan;101060.06;4983953;28;20031;-85
2023/05/17 00:13:43;;;;;;;4.95;1.92;;;;;;;6.79;nan;101063.91;4967074;28;20395;-84
2023/05/17 00:16:09;;;;;;;4.57;1.98;;;;;;;6.76;nan;101055.38;4981277;28;20121;-85
2023/05/17 00:18:35;;;;;;;4.90;2.00;;;;;;;6.71;nan;101053.09;4979421;28;20092;-85
2023/05/17 00:21:00;;;;;;;4.90;2.03;;;;;;;6.68;nan;101055.97;4980724;28;20043;-85
2023/05/17 00:23:25;;;;;;;3.95;1.58;;;;;;;6.64;nan;101045.78;4979310;28;20031;-85
2023/05/17 00:25:51;;;;;;;3.15;1.38;;;;;;;6.64;nan;101045.78;4980587;28;20054;-85
2023/05/17 00:28:16;;;;;;;7.05;1.83;;;;;;;6.67;nan;101054.28;4970621;28;20050;-85
2023/05/17 00:30:41;;;;;;;5.00;1.50;;;;;;;6.68;nan;101049.88;4991669;28;20381;-85
2023/05/17 00:33:06;;;;;;;3.38;1.52;;;;;;;6.68;nan;101058.59;4981884;28;20038;-85
2023/05/17 00:35:32;;;;;;;7.30;2.20;;;;;;;6.63;nan;101057.25;4998736;28;20038;-85
2023/05/17 00:37:58;;;;;;;6.28;2.35;;;;;;;6.58;nan;101060.22;5001437;28;20146;-85
2023/05/17 00:40:23;;;;;;;6.68;2.65;;;;;;;6.54;nan;101059.59;4999616;28;20088;-85
2023/05/17 00:42:49;;;;;;;15.32;4.07;;;;;;;6.50;nan;101057.31;4999446;28;20097;-85
2023/05/17 00:45:14;;;;;;;17.10;4.45;;;;;;;6.46;nan;101061.09;4994277;28;20113;-85
2023/05/17 00:47:40;;;;;;;11.05;3.65;;;;;;;6.42;nan;101062.28;4981994;28;20038;-85
2023/05/17 00:50:06;;;;;;;10.77;3.60;;;;;;;6.40;nan;101072.91;4983658;28;20031;-85
2023/05/17 00:52:31;;;;;;;9.50;3.33;;;;;;;6.31;nan;101069.16;4988404;28;20066;-85
2023/05/17 00:54:57;;;;;;;12.10;3.70;;;;;;;6.28;nan;101073.81;5001902;28;20377;-85
2023/05/17 00:57:22;;;;;;;9.07;3.47;;;;;;;6.24;nan;101072.34;5001971;28;20046;-85
2023/05/17 00:59:48;;;;;;;8.20;2.80;;;;;;;6.18;nan;101071.00;4977705;28;20042;-86
2023/05/17 01:02:13;;;;;;;4.97;2.13;;;;;;;6.16;nan;101070.25;4983081;28;20101;-85
2023/05/17 01:04:40;;;;;;;6.03;2.25;;;;;;;6.16;nan;101075.50;4979267;28;20049;-88
2023/05/17 01:07:05;;;;;;;5.50;1.50;;;;;;;6.19;nan;101080.53;4978733;28;20089;-85
2023/05/17 01:09:31;;;;;;;3.17;1.70;;;;;;;6.23;nan;101081.16;4984189;28;20031;-85
2023/05/17 01:12:18;;;;;;;2.88;1.27;;;;;;;6.24;nan;101082.84;4997157;28;20042;-85
2023/05/17 01:15:13;;;;;;;1.90;1.17;;;;;;;6.21;nan;101088.31;4967531;28;20034;-85
2023/05/17 01:17:45;;;;;;;4.40;1.33;;;;;;;6.17;nan;101077.19;4980009;28;20077;-85
2023/05/17 01:20:10;;;;;;;2.20;1.10;;;;;;;6.15;nan;101082.56;5010390;28;20069;-85
2023/05/17 01:22:58;;;;;;;3.00;1.17;;;;;;;6.12;nan;101084.56;4996241;28;20050;-84
2023/05/17 01:25:39;;;;;;;1.80;1.00;;;;;;;6.08;nan;101089.19;5013329;28;20357;-84
2023/05/17 01:28:05;;;;;;;;;;;;;;;6.13;nan;101089.69;4985519;28;20034;-84
2023/05/17 01:30:32;;;;;;;2.75;1.38;;;;;;;6.13;nan;101092.31;5009726;28;20145;-84
2023/05/17 01:32:58;;;;;;;4.35;1.35;;;;;;;6.10;nan;101097.81;4994687;28;20030;-84
2023/05/17 01:35:26;;;;;;;4.35;1.80;;;;;;;6.03;nan;101096.56;4993869;28;20045;-84
2023/05/17 01:37:52;;;;;;;2.45;1.50;;;;;;;5.94;nan;101097.22;4991577;28;20058;-84
2023/05/17 01:40:19;;;;;;;2.72;1.25;;;;;;;5.91;nan;101107.88;4975748;28;20031;-86
2023/05/17 01:42:49;;;;;;;4.28;1.73;;;;;;;5.85;nan;101110.94;4958613;28;20035;-86
2023/05/17 01:45:22;;;;;;;2.63;1.40;;;;;;;5.80;nan;101115.66;4958636;28;20038;-87
2023/05/17 01:47:53;;;;;;;4.03;1.67;;;;;;;5.81;nan;101114.72;4958559;28;20043;-84
2023/05/17 01:50:23;;;;;;;2.85;1.40;;;;;;;5.79;nan;101119.22;4957211;28;20504;-87
2023/05/17 01:53:00;;;;;;;5.60;1.80;;;;;;;5.80;nan;101108.63;4957705;28;20035;-83
2023/05/17 01:55:52;;;;;;;2.83;1.30;;;;;;;5.80;nan;101118.28;4981254;28;20030;-85
2023/05/17 01:58:20;;;;;;;2.90;1.20;;;;;;;5.77;nan;101116.72;4992050;28;20044;-85
2023/05/17 02:00:48;;;;;;;3.72;1.40;;;;;;;5.79;nan;101116.59;4974715;28;20463;-85
2023/05/17 02:03:17;;;;;;;3.45;1.40;;;;;;;5.82;nan;101116.41;4965878;28;20043;-86
2023/05/17 02:05:43;;;;;;;3.15;1.40;;;;;;;5.81;nan;101118.16;4975861;28;20042;-85
2023/05/17 02:08:08;;;;;;;4.22;1.80;;;;;;;5.85;nan;101122.28;4989738;28;20443;-85
2023/05/17 02:10:33;;;;;;;3.70;1.50;;;;;;;5.85;nan;101122.28;4988435;28;20026;-85
2023/05/17 02:12:59;;;;;;;3.60;1.45;;;;;;;5.83;nan;101129.41;4990854;28;20038;-86
2023/05/17 02:15:24;;;;;;;2.72;1.60;;;;;;;5.79;nan;101129.72;4990566;28;20054;-85
2023/05/17 02:17:49;;;;;;;4.47;1.83;;;;;;;5.74;nan;101128.28;4989563;28;20056;-85
2023/05/17 02:20:15;;;;;;;3.75;1.80;;;;;;;5.70;nan;101123.34;4989997;28;20520;-86
2023/05/17 02:22:40;;;;;;;2.50;1.30;;;;;;;5.80;nan;101119.13;4971564;28;20915;-85
2023/05/17 02:25:06;;;;;;;;;;;;;;;5.78;nan;101120.19;4973253;28;20031;-83
2023/05/17 02:27:31;;;;;;;1.98;1.17;;;;;;;5.79;nan;101120.06;4989806;28;19968;-85
2023/05/17 02:29:56;;;;;;;2.53;1.23;;;;;;;5.87;nan;101117.75;4990809;28;20034;-85
2023/05/17 02:32:21;;;;;;;4.45;1.27;;;;;;;5.94;nan;101113.78;4990329;28;20113;-85
2023/05/17 02:34:47;;;;;;;3.78;1.35;;;;;;;6.04;nan;101124.47;4986149;28;20035;-85
2023/05/17 02:37:12;;;;;;;3.67;1.30;;;;;;;6.10;nan;101131.06;4980285;28;20412;-86
2023/05/17 02:39:37;;;;;;;3.53;1.50;;;;;;;6.07;nan;101137.38;4973285;28;20065;-85
2023/05/17 02:42:03;;;;;;;3.30;1.40;;;;;;;6.07;nan;101133.94;4990069;28;20520;-85
2023/05/17 02:44:28;;;;;;;3.83;1.70;;;;;;;6.14;nan;101130.75;4990072;28;20615;-85
2023/05/17 02:46:53;;;;;;;3.00;1.42;;;;;;;6.23;nan;101131.91;4990366;28;20042;-85
2023/05/17 02:49:19;;;;;;;3.50;1.42;;;;;;;6.23;nan;101128.44;4979730;28;20038;-85
2023/05/17 02:51:44;;;;;;;4.40;1.63;;;;;;;6.23;nan;101138.94;4962243;28;20126;-85
2023/05/17 02:54:09;;;;;;;3.38;1.50;;;;;;;6.18;nan;101126.13;4976331;28;20033;-85
2023/05/17 02:56:34;;;;;;;2.27;1.10;;;;;;;6.30;nan;101135.78;4981705;28;20469;-85
2023/05/17 02:59:00;;;;;;;2.27;1.10;;;;;;;6.47;nan;101138.97;4983634;28;20415;-85
2023/05/17 03:01:25;;;;;;;;;;;;;;;6.46;nan;101143.41;4972282;28;20057;-85
2023/05/17 03:03:51;;;;;;;2.65;1.35;;;;;;;6.48;nan;101143.28;4990084;28;20469;-86
2023/05/17 03:06:16;;;;;;;3.15;1.33;;;;;;;6.50;nan;101146.63;4989245;28;20038;-86
2023/05/17 03:08:41;;;;;;;3.42;1.67;;;;;;;6.50;nan;101147.47;4972345;28;20129;-85
2023/05/17 03:11:06;;;;;;;3.42;1.90;;;;;;;6.48;nan;101152.00;4982173;28;20035;-85
2023/05/17 03:13:32;;;;;;;7.22;2.60;;;;;;;6.43;nan;101151.47;4989219;28;20050;-85
2023/05/17 03:15:57;;;;;;;5.03;2.58;;;;;;;6.41;nan;101139.41;4989265;28;20523;-85
2023/05/17 03:18:22;;;;;;;4.90;1.92;;;;;;;6.41;nan;101148.13;4987323;28;20043;-85
2023/05/17 03:20:47;;;;;;;3.50;1.80;;;;;;;6.41;nan;101157.78;4972585;28;20313;-85
2023/05/17 03:23:13;;;;;;;4.55;1.50;;;;;;;6.40;nan;101154.34;4988871;28;20034;-85
2023/05/17 03:25:38;;;;;;;4.40;1.70;;;;;;;6.35;nan;101149.41;4972145;28;20049;-85
2023/05/17 03:28:03;;;;;;;;;;;;;;;6.27;nan;101150.88;4969304;28;20501;-83
2023/05/17 03:30:29;;;;;;;2.97;1.50;;;;;;;6.21;nan;101161.84;4990572;28;19929;-85
2023/05/17 03:32:54;;;;;;;3.05;1.60;;;;;;;6.14;nan;101159.63;4989038;28;20034;-84
2023/05/17 03:35:19;;;;;;;3.55;1.73;;;;;;;6.05;nan;101160.28;4989656;28;20148;-84
2023/05/17 03:37:45;;;;;;;3.50;1.90;;;;;;;6.05;nan;101159.44;4995176;28;20088;-84
2023/05/17 03:40:11;;;;;;;3.70;1.77;;;;;;;6.06;nan;101166.38;4993206;28;20034;-83
2023/05/17 03:42:37;;;;;;;5.10;1.80;;;;;;;6.07;nan;101166.25;4994115;28;20054;-84
2023/05/17 03:45:03;;;;;;;3.15;1.65;;;;;;;6.07;nan;101158.38;4996505;28;20042;-85
2023/05/17 03:47:28;;;;;;;2.88;1.40;;;;;;;6.10;nan;101171.31;4995250;28;20064;-85
2023/05/17 03:49:53;;;;;;;2.10;1.30;;;;;;;6.10;nan;101170.47;4995011;28;20128;-85
2023/05/17 03:52:19;;;;;;;5.05;1.92;;;;;;;6.02;nan;101172.78;4984296;28;20421;-85
2023/05/17 03:54:44;;;;;;;5.03;2.22;;;;;;;5.93;nan;101174.22;4973575;28;20031;-85
2023/05/17 03:57:09;;;;;;;4.30;2.13;;;;;;;5.92;nan;101180.44;4956971;28;20118;-86
2023/05/17 03:59:35;;;;;;;4.70;2.05;;;;;;;5.96;nan;101179.31;4989486;28;20416;-87
2023/05/17 04:02:00;;;;;;;5.30;2.03;;;;;;;5.99;nan;101186.13;4974008;28;20074;-86
2023/05/17 04:04:26;;;;;;;3.88;1.63;;;;;;;5.97;nan;101174.91;4973165;28;20035;-86
2023/05/17 04:06:51;;;;;;;3.25;1.80;;;;;;;5.99;nan;101179.09;4986686;28;20122;-86
2023/05/17 04:09:16;;;;;;;4.20;2.00;;;;;;;6.05;nan;101183.06;4989919;28;20042;-86
2023/05/17 04:11:42;;;;;;;3.63;1.90;;;;;;;6.08;nan;101175.84;4974569;28;20528;-85
2023/05/17 04:14:07;;;;;;;;;;;;;;;6.13;nan;101180.78;4983981;28;20061;-87
2023/05/17 04:16:33;;;;;;;;;;;;;;;6.22;nan;101184.53;4993449;28;20391;-84
2023/05/17 04:19:01;;;;;;;;;;;;;;;6.25;nan;101190.41;4978561;28;19913;-84
2023/05/17 04:21:26;;;;;;;;;;;;;;;6.28;nan;101194.59;4995141;28;19918;-85
2023/05/17 04:23:51;;;;;;;;;;;;;;;6.36;nan;101197.53;4978059;28;19914;-85
2023/05/17 04:26:17;;;;;;;;;;;;;;;6.45;nan;101203.94;4994214;28;20430;-84
2023/05/17 04:28:42;;;;;;;;;;;;;;;6.50;nan;101202.63;4994367;28;19924;-85
2023/05/17 04:31:07;;;;;;;;;;;;;;;6.52;nan;101205.16;4988301;28;19926;-85
2023/05/17 04:33:33;;;;;;;;;;;;;;;6.50;nan;101209.69;4989113;28;19952;-85
2023/05/17 04:35:58;;;;;;;;;;;;;;;6.52;nan;101213.88;4975249;28;19957;-84
2023/05/17 04:38:23;;;;;;;;;;;;;;;6.54;nan;101226.94;4976584;28;19914;-84
2023/05/17 04:40:48;;;;;;;;;;;;;;;6.55;nan;101220.72;4993334;28;19921;-85
2023/05/17 04:43:13;;;;;;;;;;;;;;;6.58;nan;101223.16;4976919;28;19917;-85
2023/05/17 04:45:39;;;;;;;;;;;;;;;6.64;nan;101232.38;4974613;28;19971;-85
2023/05/17 04:48:05;;;;;;;;;;;;;;;6.67;nan;101226.88;4990884;28;20852;-85
2023/05/17 04:50:30;;;;;;;;;;;;;;;6.74;nan;101222.88;4992604;28;19960;-84
2023/05/17 04:52:55;;;;;;;;;;;;;;;6.82;nan;101228.44;4992803;28;19963;-84
2023/05/17 04:55:20;;;;;;;;;;;;;;;6.91;nan;101224.28;4976470;28;19971;-84
2023/05/17 04:57:46;;;;;;;3.57;2.20;;;;;;;6.95;nan;101225.75;4988202;28;19924;-84
2023/05/17 05:00:14;;;;;;;5.35;2.72;;;;;;;7.09;nan;101232.63;4974790;28;20046;-89
2023/05/17 05:02:39;;;;;;;4.05;2.05;;;;;;;7.20;nan;101238.78;4975778;28;20565;-87
2023/05/17 05:05:05;;;;;;;6.00;2.25;;;;;;;7.31;nan;101231.91;4975066;28;20034;-88
2023/05/17 05:07:31;;;;;;;3.88;2.35;;;;;;;7.39;nan;101238.28;4990662;28;20037;-88
2023/05/17 05:09:56;;;;;;;4.65;2.72;;;;;;;7.51;nan;101243.56;4992349;28;20034;-88
2023/05/17 05:12:21;;;;;;;4.43;2.13;;;;;;;7.67;nan;101249.38;4975696;28;20038;-88
2023/05/17 05:14:46;;;;;;;4.38;2.25;;;;;;;7.83;nan;101257.78;4973486;28;20034;-88
2023/05/17 05:17:12;;;;;;;3.40;2.05;;;;;;;8.00;nan;101255.66;4972878;28;20043;-89
2023/05/17 05:19:37;;;;;;;5.10;2.08;;;;;;;8.18;nan;101272.72;4958965;28;20046;-89
2023/05/17 05:22:02;;;;;;;4.95;2.30;;;;;;;8.41;nan;101264.84;4982490;28;20042;-89
2023/05/17 05:24:28;;;;;;;6.00;2.50;;;;;;;8.63;nan;101266.66;4972566;28;20118;-85
2023/05/17 05:26:53;;;;;;;5.28;2.63;;;;;;;8.87;nan;101277.88;4957772;28;20034;-86
2023/05/17 05:29:18;;;;;;;3.95;2.28;;;;;;;9.14;nan;101274.81;4957670;28;20035;-85
2023/05/17 05:31:44;;;;;;;4.50;2.53;;;;;;;9.36;nan;101275.72;4957921;28;20035;-86
2023/05/17 05:34:09;;;;;;;4.30;1.93;;;;;;;9.81;nan;101275.53;4955066;28;20452;-87
2023/05/17 05:36:35;;;;;;;4.17;1.80;;;;;;;10.11;nan;101274.75;4985082;28;20475;-85
2023/05/17 05:39:00;;;;;;;4.00;2.10;;;;;;;10.59;nan;101275.97;4987391;28;20449;-85
2023/05/17 05:41:26;;;;;;;4.20;2.10;;;;;;;11.09;nan;101288.38;4976193;28;20441;-86
2023/05/17 05:43:51;;;;;;;4.37;2.20;;;;;;;11.32;nan;101273.94;4976297;28;20437;-88
2023/05/17 05:46:16;;;;;;;5.15;2.30;;;;;;;11.56;nan;101277.94;4976739;28;20042;-86
2023/05/17 05:48:43;;;;;;;5.55;1.90;;;;;;;11.86;nan;101275.13;4977361;28;20041;-87
2023/05/17 05:51:14;;;;;;;3.97;2.08;;;;;;;12.20;nan;101276.50;4994642;28;20035;-87
2023/05/17 05:53:40;;;;;;;5.10;2.50;;;;;;;12.67;nan;101282.59;4978691;28;20133;-88
2023/05/17 05:56:05;;;;;;;4.40;2.33;;;;;;;12.89;nan;101289.34;4976994;28;20520;-86
2023/05/17 05:58:31;;;;;;;3.33;2.00;;;;;;;13.08;nan;101290.22;4977167;28;20035;-87
2023/05/17 06:00:59;;;;;;;5.38;2.53;;;;;;;13.37;nan;101290.91;4976947;28;20038;-87
2023/05/17 06:03:24;;;;;;;6.05;2.70;;;;;;;13.60;nan;101291.25;4977360;28;20081;-88
2023/05/17 06:05:50;;;;;;;5.00;2.30;;;;;;;13.78;nan;101295.75;4977349;28;20033;-86
2023/05/17 06:08:15;;;;;;;6.80;2.80;;;;;;;13.99;nan;101287.41;4976609;28;20038;-86
2023/05/17 06:10:41;;;;;;;5.65;2.67;;;;;;;14.03;nan;101294.09;4977072;28;20443;-84
2023/05/17 06:13:06;;;;;;;4.53;2.45;;;;;;;14.16;nan;101305.16;4977120;28;20037;-87
2023/05/17 06:15:32;;;;;;;5.45;2.60;;;;;;;14.40;nan;101303.66;4976836;28;20053;-85
2023/05/17 06:17:57;;;;;;;4.78;2.10;;;;;;;14.70;nan;101307.63;4978245;28;20102;-86
2023/05/17 06:20:23;;;;;;;6.07;2.70;;;;;;;14.68;nan;101314.94;4972292;28;20058;-84
2023/05/17 06:22:48;;;;;;;6.60;2.50;;;;;;;14.44;nan;101315.63;4995272;28;20073;-87
2023/05/17 06:25:14;;;;;;;5.28;2.20;;;;;;;14.53;nan;101312.00;4993443;28;20030;-87
2023/05/17 06:27:39;;;;;;;4.85;2.38;;;;;;;14.54;nan;101318.19;4988846;28;20038;-88
2023/05/17 06:30:05;;;;;;;5.68;2.50;;;;;;;14.87;nan;101329.84;4988488;28;20392;-88
2023/05/17 06:32:31;;;;;;;3.58;2.13;;;;;;;15.23;nan;101327.81;4970229;28;20040;-87
2023/05/17 06:34:56;;;;;;;8.55;3.05;;;;;;;15.39;nan;101323.50;4991509;28;20038;-87
2023/05/17 06:37:22;;;;;;;5.72;2.45;;;;;;;15.26;nan;101324.81;4971703;28;20034;-88
2023/05/17 06:39:50;;;;;;;15.25;3.33;;;;;;;15.21;nan;101324.47;4956683;28;20066;-87
2023/05/17 06:42:15;;;;;;;6.63;3.10;;;;;;;14.76;nan;101324.81;4970430;28;20403;-88
2023/05/17 06:44:41;;;;;;;9.85;3.63;;;;;;;14.81;nan;101327.81;4989004;28;20050;-88
2023/05/17 06:47:06;;;;;;;7.20;2.67;;;;;;;15.06;nan;101328.75;4968135;28;20031;-88
2023/05/17 06:49:32;;;;;;;5.18;2.70;;;;;;;15.36;nan;101331.84;4969076;28;20041;-90
2023/05/17 06:52:02;;;;;;;4.40;2.60;;;;;;;15.38;nan;101332.50;4977707;28;20035;-89
2023/05/17 06:54:27;;;;;;;6.53;3.15;;;;;;;15.37;nan;101338.81;4962200;28;20039;-87
2023/05/17 06:56:52;;;;;;;6.18;3.35;;;;;;;15.17;nan;101325.78;4972038;28;20530;-89
2023/05/17 06:59:18;;;;;;;5.70;2.70;;;;;;;15.44;nan;101332.66;4982570;28;20562;-87
2023/05/17 07:01:43;;;;;;;7.10;2.90;;;;;;;15.18;nan;101337.28;4982755;28;20294;-88
2023/05/17 07:04:08;;;;;;;7.10;2.80;;;;;;;15.23;nan;101335.81;4952412;28;20039;-88
2023/05/17 07:06:33;;;;;;;6.03;3.00;;;;;;;15.05;nan;101340.41;4962458;28;20035;-88
2023/05/17 07:08:59;;;;;;;4.95;2.92;;;;;;;15.18;nan;101322.16;4980742;28;20038;-89
2023/05/17 07:11:24;;;;;;;8.18;2.88;;;;;;;15.30;nan;101333.31;4982349;28;20512;-89
2023/05/17 07:13:49;;;;;;;9.93;3.70;;;;;;;15.28;nan;101330.00;4984887;28;20064;-88
2023/05/17 07:16:14;;;;;;;5.70;3.00;;;;;;;15.67;nan;101337.38;4968815;28;20532;-89
2023/05/17 07:18:40;;;;;;;10.67;3.30;;;;;;;16.39;nan;101342.03;4976096;28;20038;-88
2023/05/17 07:21:05;;;;;;;7.65;3.38;;;;;;;16.54;nan;101340.31;4970501;28;20639;-88
2023/05/17 07:23:30;;;;;;;7.28;2.63;;;;;;;16.01;nan;101342.56;4982496;28;20044;-88
2023/05/17 07:25:56;;;;;;;5.90;3.80;;;;;;;15.87;nan;101336.09;4969208;28;20545;-87
2023/05/17 07:28:21;;;;;;;6.05;3.08;;;;;;;15.76;nan;101339.09;4966426;28;20285;-88
2023/05/17 07:30:46;;;;;;;6.87;3.00;;;;;;;15.29;nan;101337.81;4972305;28;20065;-89
2023/05/17 07:33:11;;;;;;;5.93;2.83;;;;;;;15.01;nan;101334.56;4995220;28;20328;-88
2023/05/17 07:35:37;;;;;;;6.82;2.97;;;;;;;15.16;nan;101328.59;4994320;28;20273;-88
2023/05/17 07:38:02;;;;;;;6.65;2.90;;;;;;;15.11;nan;101331.78;4978370;28;20121;-88
2023/05/17 07:40:28;;;;;;;7.43;3.40;;;;;;;14.90;nan;101337.53;4978277;28;20046;-88
2023/05/17 07:42:53;;;;;;;8.27;2.97;;;;;;;14.70;nan;101333.44;4979999;28;20030;-88
2023/05/17 07:45:18;;;;;;;8.43;3.17;;;;;;;14.77;nan;101329.97;4978270;28;20042;-88
2023/05/17 07:47:44;;;;;;;6.03;3.10;;;;;;;14.71;nan;101343.94;4983305;28;20054;-88
2023/05/17 07:50:09;;;;;;;6.70;3.25;;;;;;;14.81;nan;101341.13;4972076;28;20041;-88
2023/05/17 07:52:35;;;;;;;7.72;3.80;;;;;;;14.60;nan;101345.03;4976478;28;20448;-88
2023/05/17 07:55:00;;;;;;;6.93;2.78;;;;;;;14.89;nan;101348.31;4959339;28;20531;-89
2023/05/17 07:57:26;;;;;;;6.68;2.88;;;;;;;15.06;nan;101350.06;4959456;28;20030;-88
2023/05/17 07:59:51;;;;;;;7.13;3.45;;;;;;;14.84;nan;101338.16;4976719;28;20482;-88
2023/05/17 08:02:16;;;;;;;5.90;2.97;;;;;;;14.69;nan;101337.91;4977784;28;20039;-89
2023/05/17 08:04:42;;;;;;;7.93;3.20;;;;;;;14.15;nan;101345.19;4959424;28;20566;-88
2023/05/17 08:07:07;;;;;;;8.25;3.47;;;;;;;14.19;nan;101336.75;4975687;28;20277;-89
2023/05/17 08:09:32;;;;;;;7.30;3.20;;;;;;;14.00;nan;101348.41;4977994;28;20114;-90
2023/05/17 08:11:58;;;;;;;9.23;3.25;;;;;;;13.75;nan;101350.03;4959744;28;20126;-89
2023/05/17 08:14:26;;;;;;;5.57;3.13;;;;;;;13.86;nan;101351.63;4975610;28;20039;-89
2023/05/17 08:16:51;;;;;;;5.13;2.90;;;;;;;13.98;nan;101346.91;4959524;28;20047;-91
2023/05/17 08:19:16;;;;;;;6.78;3.15;;;;;;;13.81;nan;101346.75;4959975;28;20034;-89
2023/05/17 08:21:43;;;;;;;8.70;3.35;;;;;;;13.97;nan;101354.06;4957383;28;20117;-89
2023/05/17 08:24:09;;;;;;;8.05;3.40;;;;;;;13.95;nan;101345.38;4956513;28;20081;-88
2023/05/17 08:26:34;;;;;;;7.03;3.30;;;;;;;13.69;nan;101345.31;4973741;28;20031;-88
2023/05/17 08:29:01;;;;;;;7.30;3.38;;;;;;;13.52;nan;101343.50;4975217;28;20503;-91
2023/05/17 08:31:27;;;;;;;6.22;3.05;;;;;;;13.57;nan;101347.38;4971731;28;20042;-88
2023/05/17 08:33:52;;;;;;;5.35;2.90;;;;;;;13.82;nan;101339.63;4977447;28;20030;-89
2023/05/17 08:36:17;;;;;;;7.43;3.15;;;;;;;13.84;nan;101340.28;4976867;28;20037;-89
2023/05/17 08:38:43;;;;;;;6.93;2.92;;;;;;;13.94;nan;101343.72;4977374;28;20030;-89
2023/05/17 08:41:08;;;;;;;7.35;3.00;;;;;;;14.22;nan;101335.59;4976735;28;20034;-89
2023/05/17 08:43:34;;;;;;;6.32;2.97;;;;;;;14.31;nan;101334.69;4978326;28;20035;-89
2023/05/17 08:46:00;;;;;;;6.75;3.20;;;;;;;14.59;nan;101332.72;4976771;28;20038;-89
2023/05/17 08:48:26;;;;;;;5.60;2.78;;;;;;;14.56;nan;101335.69;4973305;28;20046;-89
2023/05/17 08:50:53;;;;;;;6.25;2.78;;;;;;;14.78;nan;101330.81;4970705;28;20212;-90
2023/05/17 08:53:18;;;;;;;4.88;2.85;;;;;;;14.74;nan;101340.94;4991840;28;20385;-89
2023/05/17 08:55:48;;;;;;;8.60;3.08;;;;;;;14.48;nan;101343.59;4965338;28;20045;-89
2023/05/17 08:58:20;;;;;;;5.13;2.40;;;;;;;14.62;nan;101343.03;4969230;28;20061;-90
2023/05/17 09:00:48;;;;;;;5.82;2.65;;;;;;;14.75;nan;101331.94;4988026;28;20031;-88
2023/05/17 09:03:17;;;;;;;7.97;3.20;;;;;;;14.55;nan;101344.66;4991496;28;20129;-89
2023/05/17 09:05:45;;;;;;;5.75;2.13;;;;;;;14.59;nan;101338.03;4966440;28;20035;-89
2023/05/17 09:08:12;;;;;;;8.40;2.75;;;;;;;14.68;nan;101341.56;4981491;28;20465;-89
2023/05/17 09:10:39;;;;;;;5.45;2.47;;;;;;;15.17;nan;101338.28;4981928;28;20130;-89
2023/05/17 09:13:05;;;;;;;6.38;2.53;;;;;;;15.47;nan;101337.69;4974251;28;20034;-89
2023/05/17 09:15:32;;;;;;;7.05;2.40;;;;;;;15.98;nan;101334.09;4990286;28;20558;-90
2023/05/17 09:17:58;;;;;;;7.13;2.42;;;;;;;16.06;nan;101334.06;4972896;28;20500;-90
2023/05/17 09:20:32;;;;;;;4.93;2.20;;;;;;;16.13;nan;101335.88;4976564;28;20057;-91
2023/05/17 09:22:58;;;;;;;3.75;2.15;;;;;;;16.04;nan;101333.41;4973040;28;20085;-89
2023/05/17 09:25:24;;;;;;;4.90;2.50;;;;;;;15.49;nan;101332.19;4987873;28;20038;-89
2023/05/17 09:27:53;;;;;;;4.18;2.08;;;;;;;15.42;nan;101339.16;4973633;28;20031;-88
2023/05/17 09:30:18;;;;;;;4.25;2.22;;;;;;;15.31;nan;101334.16;4972850;28;20030;-90
2023/05/17 09:32:47;;;;;;;4.15;2.03;;;;;;;15.22;nan;101338.63;4965031;28;20400;-89
2023/05/17 09:35:12;;;;;;;4.65;2.30;;;;;;;15.25;nan;101336.47;4969059;28;20432;-90
2023/05/17 09:37:38;;;;;;;4.15;2.28;;;;;;;15.34;nan;101332.00;4981973;28;20042;-89
2023/05/17 09:40:05;;;;;;;4.57;2.00;;;;;;;15.56;nan;101338.50;4967479;28;20519;-90
2023/05/17 09:42:38;;;;;;;4.90;2.58;;;;;;;15.69;nan;101340.72;4986398;28;20039;-89
2023/05/17 09:45:03;;;;;;;3.65;2.05;;;;;;;16.03;nan;101334.41;4993011;28;20038;-90
2023/05/17 09:47:29;;;;;;;4.07;2.03;;;;;;;16.52;nan;101335.19;4975658;28;20407;-89
2023/05/17 09:49:57;;;;;;;4.07;2.10;;;;;;;17.05;nan;101329.34;4991239;28;20104;-90
2023/05/17 09:52:23;;;;;;;4.38;2.03;;;;;;;17.31;nan;101334.38;4967989;28;20130;-90
2023/05/17 09:54:57;;;;;;;5.15;2.13;;;;;;;17.34;nan;101340.19;4984434;28;20035;-90
2023/05/17 09:57:25;;;;;;;5.38;2.00;;;;;;;17.33;nan;101341.22;4962963;28;20069;-87
2023/05/17 09:59:55;;;;;;;3.70;2.00;;;;;;;17.16;nan;101343.13;4955529;28;20477;-87
2023/05/17 10:02:21;;;;;;;5.80;2.28;;;;;;;;;;4954802;28;20038;-87
2023/05/17 10:04:51;;;;;;;4.43;1.77;;;;;;;16.83;nan;101342.47;4984902;28;20068;-90
2023/05/17 10:07:20;;;;;;;3.10;1.85;;;;;;;16.73;nan;101337.28;4969050;28;20038;-90
2023/05/17 10:09:50;;;;;;;4.85;2.30;;;;;;;16.63;nan;101349.16;4969933;28;20033;-90
2023/05/17 10:12:20;;;;;;;5.88;2.28;;;;;;;16.45;nan;101338.69;4953726;28;20030;-88
2023/05/17 10:14:49;;;;;;;5.72;2.40;;;;;;;16.13;nan;101343.91;4954892;28;20085;-90
2023/05/17 10:17:16;;;;;;;5.03;2.00;;;;;;;16.34;nan;101338.03;4954250;28;20430;-88
2023/05/17 10:19:42;;;;;;;5.40;2.53;;;;;;;16.52;nan;101332.50;4954973;28;20515;-88
2023/05/17 10:22:08;;;;;;;4.68;2.25;;;;;;;16.12;nan;101344.91;4981105;28;20053;-87
2023/05/17 10:24:36;;;;;;;6.30;2.15;;;;;;;15.92;nan;101335.56;4971691;28;20455;-86
2023/05/17 10:27:02;;;;;;;6.22;2.50;;;;;;;15.71;nan;101344.91;4990048;28;20034;-86
2023/05/17 10:29:30;;;;;;;5.32;2.30;;;;;;;15.22;nan;101341.28;4978522;28;20571;-89
2023/05/17 10:31:57;;;;;;;4.10;2.20;;;;;;;15.21;nan;101337.78;4980071;28;20039;-89
2023/05/17 10:34:26;;;;;;;4.50;2.05;;;;;;;15.18;nan;101335.47;4987327;28;20073;-89
2023/05/17 10:36:52;;;;;;;4.65;2.40;;;;;;;15.21;nan;101337.78;4974585;28;20038;-87
2023/05/17 10:39:19;;;;;;;5.80;2.50;;;;;;;15.23;nan;101340.28;4970829;28;20026;-86
2023/05/17 10:41:49;;;;;;;4.38;2.40;;;;;;;15.22;nan;101339.44;4971875;28;20034;-89
2023/05/17 10:44:16;;;;;;;5.82;2.20;;;;;;;15.28;nan;101338.81;4976769;28;20053;-89
2023/05/17 10:46:53;;;;;;;5.07;2.40;;;;;;;15.63;nan;101346.69;4974305;28;20062;-87
2023/05/17 10:49:19;;;;;;;5.70;2.60;;;;;;;15.73;nan;101341.25;4974971;28;20203;-87
2023/05/17 10:51:44;;;;;;;6.20;2.33;;;;;;;16.05;nan;101343.09;4970267;28;20117;-87
2023/05/17 10:54:20;;;;;;;5.70;2.15;;;;;;;16.46;nan;101340.34;4953879;28;20074;-87
2023/05/17 10:56:52;;;;;;;4.50;2.22;;;;;;;17.04;nan;101333.00;4983683;28;20424;-88
2023/05/17 10:59:28;;;;;;;7.82;2.95;;;;;;;17.52;nan;101339.06;4989254;28;20065;-87
2023/05/17 11:02:04;;;;;;;3.65;1.92;;;;;;;18.97;nan;101328.16;4973094;28;20042;-88
2023/05/17 11:04:33;;;;;;;5.30;2.00;;;;;;;21.32;nan;101328.72;4977130;28;20377;-88
2023/05/17 11:07:26;;;;;;;5.25;2.35;;;;;;;23.00;nan;101328.47;4974888;28;20400;-89
2023/05/17 11:10:37;;;;;;;4.75;2.10;;;;;;;24.94;nan;101325.78;4967300;28;20054;-87
2023/05/17 11:13:21;;;;;;;4.75;2.30;;;;;;;24.11;nan;101326.25;4974843;28;20039;-89
2023/05/17 11:16:04;;;;;;;5.18;2.22;;;;;;;22.26;nan;101326.97;4988515;28;20117;-88
2023/05/17 11:18:54;;;;;;;4.35;2.03;;;;;;;21.32;nan;101323.34;4979908;28;20045;-87
2023/05/17 11:21:21;;;;;;;4.43;1.80;;;;;;;20.82;nan;101330.84;4972029;28;20093;-87
2023/05/17 11:23:52;;;;;;;5.97;2.03;;;;;;;20.07;nan;101321.66;4989043;28;20084;-86
2023/05/17 11:26:27;;;;;;;4.18;2.28;;;;;;;19.02;nan;101325.75;4972174;28;20089;-87
2023/05/17 11:29:07;;;;;;;4.15;2.10;;;;;;;18.55;nan;101330.50;4988837;28;20038;-88
2023/05/17 11:31:34;;;;;;;7.53;2.40;;;;;;;18.61;nan;101331.59;4971174;28;20035;-87
2023/05/17 11:34:02;;;;;;;4.88;2.30;;;;;;;18.72;nan;101323.09;4972805;28;20028;-87
2023/05/17 11:36:27;;;;;;;4.43;2.40;;;;;;;18.99;nan;101324.28;4981821;28;20113;-87
2023/05/17 11:39:13;;;;;;;5.95;2.63;;;;;;;18.66;nan;101329.19;4967834;28;20511;-87
2023/05/17 11:41:46;;;;;;;6.63;2.47;;;;;;;18.41;nan;101324.13;4953150;28;20508;-87
2023/05/17 11:44:12;;;;;;;5.47;2.30;;;;;;;18.25;nan;101325.09;4965005;28;20109;-86
2023/05/17 11:46:39;;;;;;;5.25;2.15;;;;;;;18.25;nan;101319.75;4953265;28;20517;-87
2023/05/17 11:49:08;;;;;;;6.30;2.50;;;;;;;17.90;nan;101323.94;4966181;28;20403;-86
2023/05/17 11:51:33;;;;;;;5.22;2.13;;;;;;;17.75;nan;101323.03;4988651;28;20034;-87